createdAt,value
2023-01-23T00:01:30.068Z,103678.03
2023-01-23T00:03:32.327Z,103676.19
2023-01-23T00:05:33.766Z,103681.31
2023-01-23T00:07:35.223Z,103682.97
2023-01-23T00:09:36.664Z,103686.47
2023-01-23T00:11:38.370Z,103690.88
2023-01-23T00:13:39.913Z,103689.97
2023-01-23T00:15:41.549Z,103685.66
2023-01-23T00:17:43.133Z,103692.66
2023-01-23T00:19:44.813Z,103690.88
2023-01-23T00:21:46.306Z,103681.31
2023-01-23T00:23:50.377Z,103690.06
2023-01-23T00:25:51.818Z,103692.59
2023-01-23T00:27:53.561Z,103696.09
2023-01-23T00:29:55.246Z,103696.91
2023-01-23T00:31:56.790Z,103696.81
2023-01-23T00:34:00.952Z,103688.09
2023-01-23T00:36:02.606Z,103688.09
2023-01-23T00:38:04.145Z,103688.94
2023-01-23T00:40:06.256Z,103687.22
2023-01-23T00:42:07.720Z,103687.22
2023-01-23T00:44:09.250Z,103684.59
2023-01-23T00:46:10.867Z,103681.09
2023-01-23T00:48:12.411Z,103681.03
2023-01-23T00:50:14.678Z,103687.97
2023-01-23T00:52:16.149Z,103693.09
2023-01-23T00:54:17.727Z,103692.28
2023-01-23T00:56:19.288Z,103688.78
2023-01-23T00:58:20.968Z,103694.97
2023-01-23T01:00:22.523Z,103697.50
2023-01-23T01:02:23.985Z,103697.41
2023-01-23T01:04:25.516Z,103696.59
2023-01-23T01:06:29.704Z,103703.59
2023-01-23T01:08:31.645Z,103704.34
2023-01-23T01:10:34.112Z,103704.28
2023-01-23T01:12:35.620Z,103712.09
2023-01-23T01:14:37.142Z,103719.00
2023-01-23T01:16:40.883Z,103718.91
2023-01-23T01:18:42.482Z,103713.78
2023-01-23T01:20:44.548Z,103719.81
2023-01-23T01:22:46.051Z,103726.75
2023-01-23T01:24:47.846Z,103729.34
2023-01-23T01:26:49.400Z,103729.28
2023-01-23T01:28:50.959Z,103729.34
2023-01-23T01:30:52.604Z,103729.44
2023-01-23T01:32:54.992Z,103736.34
2023-01-23T01:34:56.586Z,103738.19
2023-01-23T01:36:58.188Z,103739.78
2023-01-23T01:38:59.632Z,103738.97
2023-01-23T01:41:01.076Z,103742.38
2023-01-23T01:43:06.823Z,103736.28
2023-01-23T01:45:46.932Z,103743.19
2023-01-23T01:47:48.343Z,103742.22
2023-01-23T01:49:52.881Z,103744.84
2023-01-23T01:52:02.841Z,103745.75
2023-01-23T01:54:33.105Z,103747.44
2023-01-23T01:56:39.945Z,103748.25
2023-01-23T01:58:44.557Z,103746.56
2023-01-23T02:00:46.073Z,103742.22
2023-01-23T02:02:52.029Z,103737.09
2023-01-23T02:05:01.438Z,103730.25
2023-01-23T02:07:09.498Z,103731.13
2023-01-23T02:09:18.724Z,103723.31
2023-01-23T02:11:20.329Z,103725.13
2023-01-23T02:13:36.056Z,103719.91
2023-01-23T02:15:38.664Z,103719.91
2023-01-23T02:17:40.617Z,103725.13
2023-01-23T02:19:59.198Z,103732.97
2023-01-23T02:22:17.158Z,103723.25
2023-01-23T02:24:42.788Z,103725.84
2023-01-23T02:26:46.006Z,103727.56
2023-01-23T02:28:52.306Z,103732.78
2023-01-23T02:30:54.336Z,103734.47
2023-01-23T02:33:08.103Z,103732.78
2023-01-23T02:35:15.344Z,103733.59
2023-01-23T02:37:17.686Z,103726.66
2023-01-23T02:39:20.325Z,103724.13
2023-01-23T02:41:29.259Z,103731.13
2023-01-23T02:43:35.230Z,103732.84
2023-01-23T02:45:37.292Z,103724.94
2023-01-23T02:47:38.787Z,103727.56
2023-01-23T02:49:40.523Z,103728.44
2023-01-23T02:51:41.965Z,103730.16
2023-01-23T02:53:44.297Z,103728.44
2023-01-23T02:55:45.914Z,103739.78
2023-01-23T02:57:48.077Z,103740.59
2023-01-23T03:00:08.444Z,103738.00
2023-01-23T03:02:10.669Z,103743.28
2023-01-23T03:04:12.176Z,103740.66
2023-01-23T03:06:13.720Z,103749.31
2023-01-23T03:08:15.206Z,103739.78
2023-01-23T03:10:16.966Z,103745.00
2023-01-23T03:12:18.542Z,103745.75
2023-01-23T03:14:22.515Z,103751.03
2023-01-23T03:16:23.965Z,103747.53
2023-01-23T03:18:30.888Z,103740.59
2023-01-23T03:20:41.799Z,103738.88
2023-01-23T03:22:43.283Z,103738.06
2023-01-23T03:24:44.919Z,103739.78
2023-01-23T03:26:47.880Z,103741.50
2023-01-23T03:29:07.748Z,103743.19
2023-01-23T03:31:09.800Z,103738.81
2023-01-23T03:33:11.246Z,103740.59
2023-01-23T03:35:16.390Z,103737.16
2023-01-23T03:37:19.623Z,103739.69
2023-01-23T03:39:39.915Z,103745.81
2023-01-23T03:41:42.061Z,103747.44
2023-01-23T03:43:43.504Z,103744.84
2023-01-23T03:45:45.006Z,103746.56
2023-01-23T03:47:46.483Z,103745.66
2023-01-23T03:49:47.998Z,103746.56
2023-01-23T03:51:49.475Z,103756.97
2023-01-23T03:53:50.956Z,103767.50
2023-01-23T03:55:52.455Z,103766.59
2023-01-23T03:57:53.892Z,103773.59
2023-01-23T03:59:55.374Z,103767.56
2023-01-23T04:01:58.075Z,103767.66
2023-01-23T04:03:59.525Z,103760.72
2023-01-23T04:06:01.151Z,103766.88
2023-01-23T04:08:02.700Z,103770.44
2023-01-23T04:10:04.454Z,103764.34
2023-01-23T04:12:05.988Z,103767.84
2023-01-23T04:14:08.691Z,103764.25
2023-01-23T04:16:10.236Z,103774.69
2023-01-23T04:18:11.756Z,103772.09
2023-01-23T04:20:14.367Z,103773.75
2023-01-23T04:22:15.821Z,103786.72
2023-01-23T04:24:17.622Z,103780.53
2023-01-23T04:26:19.063Z,103789.25
2023-01-23T04:28:21.127Z,103789.25
2023-01-23T04:30:22.795Z,103786.66
2023-01-23T04:32:25.228Z,103783.13
2023-01-23T04:34:26.773Z,103789.25
2023-01-23T04:36:28.226Z,103783.13
2023-01-23T04:38:31.082Z,103789.25
2023-01-23T04:40:32.521Z,103788.44
2023-01-23T04:42:33.985Z,103791.03
2023-01-23T04:44:35.433Z,103796.25
2023-01-23T04:46:38.622Z,103795.38
2023-01-23T04:48:40.121Z,103795.38
2023-01-23T04:50:41.560Z,103787.53
2023-01-23T04:52:43.024Z,103796.25
2023-01-23T04:54:44.509Z,103793.56
2023-01-23T04:56:46.296Z,103796.09
2023-01-23T04:58:49.797Z,103796.09
2023-01-23T05:00:51.315Z,103797.81
2023-01-23T05:02:52.743Z,103801.25
2023-01-23T05:04:54.315Z,103803.84
2023-01-23T05:06:55.865Z,103805.47
2023-01-23T05:08:57.356Z,103808.91
2023-01-23T05:10:58.803Z,103805.47
2023-01-23T05:13:00.302Z,103808.00
2023-01-23T05:15:01.795Z,103811.44
2023-01-23T05:17:03.261Z,103807.09
2023-01-23T05:19:05.002Z,103812.25
2023-01-23T05:21:06.826Z,103814.84
2023-01-23T05:23:08.886Z,103819.16
2023-01-23T05:25:10.337Z,103820.06
2023-01-23T05:27:12.370Z,103818.34
2023-01-23T05:29:13.931Z,103814.03
2023-01-23T05:31:15.443Z,103820.16
2023-01-23T05:33:17.254Z,103823.72
2023-01-23T05:35:18.880Z,103819.34
2023-01-23T05:37:20.476Z,103829.75
2023-01-23T05:39:22.208Z,103823.72
2023-01-23T05:41:25.677Z,103831.56
2023-01-23T05:43:27.225Z,103841.09
2023-01-23T05:45:28.659Z,103844.59
2023-01-23T05:47:30.219Z,103848.19
2023-01-23T05:49:31.759Z,103849.91
2023-01-23T05:51:33.981Z,103851.69
2023-01-23T05:53:35.439Z,103854.22
2023-01-23T05:55:39.978Z,103856.91
2023-01-23T05:57:41.645Z,103864.66
2023-01-23T05:59:43.128Z,103859.34
2023-01-23T06:01:44.575Z,103862.03
2023-01-23T06:03:46.749Z,103862.84
2023-01-23T06:05:48.200Z,103863.66
2023-01-23T06:07:49.761Z,103864.47
2023-01-23T06:09:51.226Z,103860.91
2023-01-23T06:11:52.667Z,103863.41
2023-01-23T06:13:54.162Z,103869.53
2023-01-23T06:15:56.312Z,103866.94
2023-01-23T06:17:57.877Z,103866.09
2023-01-23T06:19:59.430Z,103877.44
2023-01-23T06:22:00.930Z,103873.78
2023-01-23T06:24:03.238Z,103872.88
2023-01-23T06:26:05.001Z,103873.78
2023-01-23T06:28:06.546Z,103870.19
2023-01-23T06:30:08.846Z,103865.78
2023-01-23T06:32:10.282Z,103867.56
2023-01-23T06:34:11.756Z,103866.59
2023-01-23T06:36:13.179Z,103870.91
2023-01-23T06:38:14.630Z,103867.41
2023-01-23T06:40:16.389Z,103869.13
2023-01-23T06:42:17.822Z,103870.91
2023-01-23T06:44:19.278Z,103874.41
2023-01-23T06:46:20.867Z,103877.03
2023-01-23T06:48:22.489Z,103875.16
2023-01-23T06:50:23.998Z,103882.25
2023-01-23T06:52:25.441Z,103879.63
2023-01-23T06:54:26.934Z,103889.34
2023-01-23T06:56:28.443Z,103884.94
2023-01-23T06:58:29.926Z,103881.50
2023-01-23T07:00:31.469Z,103887.72
2023-01-23T07:02:33.026Z,103889.50
2023-01-23T07:04:34.578Z,103894.72
2023-01-23T07:06:36.026Z,103898.22
2023-01-23T07:08:37.476Z,103897.41
2023-01-23T07:10:39.083Z,103906.19
2023-01-23T07:12:40.555Z,103892.28
2023-01-23T07:14:42.041Z,103894.97
2023-01-23T07:16:43.507Z,103900.16
2023-01-23T07:18:45.267Z,103894.97
2023-01-23T07:20:47.375Z,103900.25
2023-01-23T07:22:50.015Z,103900.34
2023-01-23T07:24:51.461Z,103904.75
2023-01-23T07:26:52.903Z,103900.50
2023-01-23T07:28:54.342Z,103906.63
2023-01-23T07:30:57.787Z,103904.91
2023-01-23T07:32:59.553Z,103911.00
2023-01-23T07:35:01.036Z,103913.63
2023-01-23T07:37:02.499Z,103919.75
2023-01-23T07:39:03.984Z,103916.31
2023-01-23T07:41:05.589Z,103919.75
2023-01-23T07:43:07.100Z,103925.84
2023-01-23T07:45:10.139Z,103924.13
2023-01-23T07:47:11.632Z,103929.47
2023-01-23T07:49:13.759Z,103925.97
2023-01-23T07:51:15.542Z,103928.66
2023-01-23T07:53:17.104Z,103926.03
2023-01-23T07:55:18.631Z,103927.84
2023-01-23T07:57:20.114Z,103927.84
2023-01-23T07:59:21.911Z,103935.75
2023-01-23T08:01:23.344Z,103929.72
2023-01-23T08:03:27.838Z,103939.25
2023-01-23T08:05:29.298Z,103935.75
2023-01-23T08:07:30.746Z,103945.28
2023-01-23T08:09:32.285Z,103940.16
2023-01-23T08:11:34.506Z,103950.75
2023-01-23T08:13:36.629Z,103953.34
2023-01-23T08:15:38.891Z,103952.53
2023-01-23T08:17:40.362Z,103957.75
2023-01-23T08:19:41.860Z,103955.22
2023-01-23T08:21:43.965Z,103953.59
2023-01-23T08:23:46.472Z,103952.69
2023-01-23T08:25:53.024Z,103963.31
2023-01-23T08:27:54.471Z,103955.47
2023-01-23T08:29:55.910Z,103966.81
2023-01-23T08:31:57.536Z,103970.41
2023-01-23T08:33:59.009Z,103965.25
2023-01-23T08:36:00.630Z,103965.25
2023-01-23T08:38:02.630Z,103958.31
2023-01-23T08:40:05.023Z,103959.31
2023-01-23T08:42:06.688Z,103963.72
2023-01-23T08:44:08.122Z,103960.38
2023-01-23T08:46:10.671Z,103959.47
2023-01-23T08:48:12.484Z,103953.44
2023-01-23T08:50:14.475Z,103961.34
2023-01-23T08:52:16.031Z,103954.41
2023-01-23T08:54:17.460Z,103960.53
2023-01-23T08:56:21.782Z,103970.16
2023-01-23T08:58:23.280Z,103974.47
2023-01-23T09:00:24.727Z,103973.56
2023-01-23T09:02:26.342Z,103976.03
2023-01-23T09:04:27.792Z,103985.56
2023-01-23T09:06:29.262Z,103978.56
2023-01-23T09:08:30.819Z,103986.47
2023-01-23T09:10:32.301Z,103992.56
2023-01-23T09:12:33.781Z,103984.81
2023-01-23T09:14:35.306Z,103991.09
2023-01-23T09:16:36.940Z,103989.56
2023-01-23T09:18:38.682Z,103982.72
2023-01-23T09:20:40.221Z,103987.94
2023-01-23T09:22:42.021Z,103985.31
2023-01-23T09:24:43.495Z,103984.41
2023-01-23T09:26:45.027Z,103981.81
2023-01-23T09:28:46.539Z,103981.06
2023-01-23T09:30:48.024Z,103983.84
2023-01-23T09:32:49.502Z,103981.25
2023-01-23T09:34:51.143Z,103984.84
2023-01-23T09:36:52.601Z,103983.84
2023-01-23T09:38:54.044Z,103987.34
2023-01-23T09:40:58.681Z,103988.38
2023-01-23T09:43:11.702Z,103986.91
2023-01-23T09:45:18.780Z,103986.16
2023-01-23T09:47:26.372Z,103980.13
2023-01-23T09:49:44.866Z,103976.69
2023-01-23T09:51:58.467Z,103977.59
2023-01-23T09:54:14.404Z,103978.47
2023-01-23T09:56:36.190Z,103978.66
2023-01-23T09:59:03.545Z,103995.38
2023-01-23T10:01:05.803Z,103985.97
2023-01-23T10:03:15.831Z,103983.53
2023-01-23T10:05:20.647Z,103978.38
2023-01-23T10:07:31.317Z,103979.44
2023-01-23T10:10:11.593Z,103977.94
2023-01-23T10:12:44.232Z,103974.69
2023-01-23T10:14:51.577Z,103971.31
2023-01-23T10:16:56.080Z,103967.91
2023-01-23T10:19:45.453Z,103982.66
2023-01-23T10:22:17.090Z,103986.28
2023-01-23T10:24:40.760Z,103973.38
2023-01-23T10:26:46.400Z,103978.63
2023-01-23T10:28:48.212Z,103969.13
2023-01-23T10:30:56.163Z,103971.81
2023-01-23T10:33:18.264Z,103978.25
2023-01-23T10:35:28.614Z,103975.06
2023-01-23T10:37:44.560Z,103972.66
2023-01-23T10:39:53.368Z,103972.75
2023-01-23T10:42:01.975Z,103982.44
2023-01-23T10:44:14.576Z,103977.38
2023-01-23T10:46:22.121Z,103979.91
2023-01-23T10:48:32.426Z,103983.56
2023-01-23T10:50:39.169Z,103985.44
2023-01-23T10:52:46.917Z,103983.88
2023-01-23T10:54:48.365Z,103982.22
2023-01-23T10:57:04.846Z,103974.41
2023-01-23T10:59:18.810Z,103977.28
2023-01-23T11:01:27.725Z,103978.91
2023-01-23T11:03:32.689Z,103986.81
2023-01-23T11:05:50.596Z,103982.50
2023-01-23T11:07:55.574Z,103994.91
2023-01-23T11:10:04.457Z,103992.34
2023-01-23T11:12:06.335Z,104000.13
2023-01-23T11:14:13.826Z,103993.19
2023-01-23T11:16:19.432Z,103994.06
2023-01-23T11:18:35.995Z,104001.16
2023-01-23T11:20:52.546Z,103993.31
2023-01-23T11:23:10.858Z,103996.00
2023-01-23T11:25:32.056Z,103997.72
2023-01-23T11:27:33.554Z,103994.97
2023-01-23T11:30:01.248Z,103990.63
2023-01-23T11:32:10.468Z,103989.81
2023-01-23T11:34:13.869Z,103991.75
2023-01-23T11:36:18.408Z,103994.53
2023-01-23T11:38:30.838Z,103995.56
2023-01-23T11:40:32.735Z,103993.03
2023-01-23T11:42:39.472Z,103993.09
2023-01-23T11:44:46.400Z,103998.31
2023-01-23T11:47:18.675Z,104001.00
2023-01-23T11:49:41.510Z,104002.72
2023-01-23T11:51:42.928Z,103999.16
2023-01-23T11:53:50.205Z,103997.44
2023-01-23T11:56:18.835Z,104007.66
2023-01-23T11:58:25.002Z,104003.34
2023-01-23T12:00:42.519Z,103997.22
2023-01-23T12:03:14.523Z,104000.78
2023-01-23T12:05:27.686Z,104003.34
2023-01-23T12:07:39.020Z,104000.72
2023-01-23T12:09:52.923Z,103999.81
2023-01-23T12:12:21.423Z,103998.03
2023-01-23T12:14:52.874Z,103989.22
2023-01-23T12:17:19.093Z,103991.75
2023-01-23T12:19:52.729Z,103999.69
2023-01-23T12:22:00.826Z,103998.84
2023-01-23T12:24:21.058Z,103998.03
2023-01-23T12:26:25.710Z,104000.72
2023-01-23T12:28:51.125Z,104001.63
2023-01-23T12:31:05.397Z,103999.16
2023-01-23T12:33:48.053Z,103997.44
2023-01-23T12:35:52.189Z,103992.06
2023-01-23T12:38:09.008Z,103993.84
2023-01-23T12:40:14.661Z,103991.97
2023-01-23T12:42:21.999Z,103997.06
2023-01-23T12:45:10.897Z,103996.16
2023-01-23T12:47:18.371Z,103990.84
2023-01-23T12:49:19.787Z,103991.69
2023-01-23T12:51:28.068Z,103990.94
2023-01-23T12:53:37.430Z,103987.50
2023-01-23T12:56:06.789Z,103984.97
2023-01-23T12:58:16.408Z,103979.66
2023-01-23T13:00:17.813Z,103976.97
2023-01-23T13:02:37.182Z,103979.59
2023-01-23T13:05:03.609Z,103980.47
2023-01-23T13:07:05.020Z,103985.78
2023-01-23T13:09:19.159Z,103991.16
2023-01-23T13:11:42.447Z,103982.50
2023-01-23T13:13:46.322Z,103988.63
2023-01-23T13:16:12.034Z,103990.41
2023-01-23T13:18:28.073Z,103989.66
2023-01-23T13:21:10.613Z,103985.31
2023-01-23T13:23:32.596Z,103983.75
2023-01-23T13:25:38.109Z,103983.69
2023-01-23T13:28:11.709Z,103992.50
2023-01-23T13:30:22.511Z,103993.53
2023-01-23T13:32:29.374Z,103997.19
2023-01-23T13:34:30.862Z,104000.72
2023-01-23T13:36:34.501Z,103997.19
2023-01-23T13:38:37.717Z,104004.91
2023-01-23T13:40:59.181Z,103998.91
2023-01-23T13:43:39.330Z,103997.13
2023-01-23T13:45:45.085Z,103992.66
2023-01-23T14:20:19.322Z,103996.59
2023-01-23T14:22:21.148Z,103996.53
2023-01-23T14:24:25.173Z,103998.19
2023-01-23T14:26:35.792Z,104001.63
2023-01-23T14:28:37.479Z,104005.06
2023-01-23T14:30:38.935Z,104005.06
2023-01-23T14:32:40.858Z,104004.22
2023-01-23T14:34:42.393Z,104003.34
2023-01-23T14:36:46.441Z,104002.50
2023-01-23T14:38:50.031Z,104017.31
2023-01-23T14:40:51.584Z,104012.06
2023-01-23T14:43:07.858Z,104022.59
2023-01-23T14:45:12.777Z,104026.13
2023-01-23T14:47:21.552Z,104019.03
2023-01-23T14:49:29.625Z,104016.34
2023-01-23T14:51:31.182Z,104011.09
2023-01-23T14:53:32.765Z,104016.25
2023-01-23T14:55:40.994Z,104005.88
2023-01-23T14:57:42.702Z,104002.44
2023-01-23T14:59:45.634Z,103998.19
2023-01-23T15:01:57.549Z,104002.66
2023-01-23T15:04:04.997Z,104001.75
2023-01-23T15:06:11.820Z,103989.59
2023-01-23T15:08:21.481Z,103991.22
2023-01-23T15:10:29.159Z,103990.41
2023-01-23T15:12:30.662Z,103985.19
2023-01-23T15:14:39.899Z,103986.06
2023-01-23T15:16:41.945Z,103978.31
2023-01-23T15:19:03.220Z,103973.06
2023-01-23T15:21:08.817Z,103976.59
2023-01-23T15:23:37.727Z,103968.66
2023-01-23T15:25:39.255Z,103969.34
2023-01-23T15:27:40.740Z,103973.75
2023-01-23T15:29:42.202Z,103969.28
2023-01-23T15:31:46.945Z,103968.38
2023-01-23T15:33:48.502Z,103964.78
2023-01-23T15:35:49.973Z,103967.41
2023-01-23T15:37:55.988Z,103960.53
2023-01-23T15:40:02.594Z,103963.06
2023-01-23T15:42:24.544Z,103966.59
2023-01-23T15:44:29.035Z,103966.50
2023-01-23T15:46:30.638Z,103959.50
2023-01-23T15:48:32.128Z,103965.63
2023-01-23T15:50:33.698Z,103969.94
2023-01-23T15:52:49.832Z,103968.22
2023-01-23T15:54:55.059Z,103973.38
2023-01-23T15:57:07.123Z,103971.59
2023-01-23T15:59:14.631Z,103972.41
2023-01-23T16:01:16.114Z,103975.84
2023-01-23T16:03:17.691Z,103972.34
2023-01-23T16:05:24.084Z,103971.44
2023-01-23T16:07:31.041Z,103977.50
2023-01-23T16:09:35.329Z,103978.31
2023-01-23T16:11:38.727Z,103988.78
2023-01-23T16:13:40.591Z,103993.03
2023-01-23T16:15:43.339Z,103983.31
2023-01-23T16:17:45.231Z,103993.03
2023-01-23T16:19:46.758Z,103983.41
2023-01-23T16:22:03.194Z,103982.41
2023-01-23T16:24:06.711Z,103984.13
2023-01-23T16:26:23.247Z,103992.75
2023-01-23T16:28:28.204Z,103997.09
2023-01-23T16:30:29.680Z,103991.97
2023-01-23T16:32:31.235Z,103997.22
2023-01-23T16:34:32.789Z,104000.53
2023-01-23T16:36:34.259Z,103995.31
2023-01-23T16:38:35.764Z,104003.16
2023-01-23T16:40:37.462Z,104000.59
2023-01-23T16:42:39.293Z,104001.53
2023-01-23T16:44:40.776Z,104002.31
2023-01-23T16:46:42.442Z,104000.53
2023-01-23T16:48:44.526Z,104007.47
2023-01-23T16:50:55.784Z,104004.94
2023-01-23T16:53:05.377Z,104002.31
2023-01-23T16:55:23.707Z,104012.78
2023-01-23T16:57:25.491Z,104007.47
2023-01-23T16:59:32.907Z,104007.47
2023-01-23T17:01:40.425Z,104008.28
2023-01-23T17:03:42.565Z,104016.97
2023-01-23T17:05:44.285Z,104023.91
2023-01-23T17:07:47.320Z,104024.81
2023-01-23T17:09:49.336Z,104029.13
2023-01-23T17:11:56.448Z,104027.34
2023-01-23T17:14:04.309Z,104026.44
2023-01-23T17:16:18.736Z,104032.56
2023-01-23T17:18:32.772Z,104022.94
2023-01-23T17:20:34.237Z,104025.53
2023-01-23T17:22:39.850Z,104025.53
2023-01-23T17:24:41.327Z,104025.47
2023-01-23T17:26:43.252Z,104028.06
2023-01-23T17:28:45.196Z,104027.19
2023-01-23T17:30:50.172Z,104034.19
2023-01-23T17:32:57.688Z,104036.75
2023-01-23T17:35:02.972Z,104042.03
2023-01-23T17:37:04.688Z,104039.44
2023-01-23T17:39:09.482Z,104045.47
2023-01-23T17:41:17.359Z,104050.78
2023-01-23T17:43:20.843Z,104052.50
2023-01-23T17:45:25.292Z,104040.25
2023-01-23T17:47:27.317Z,104038.44
2023-01-23T17:49:31.131Z,104047.13
2023-01-23T17:51:33.559Z,104049.81
2023-01-23T17:53:35.017Z,104053.25
2023-01-23T17:55:36.600Z,104056.66
2023-01-23T17:57:38.091Z,104058.47
2023-01-23T17:59:39.537Z,104057.56
2023-01-23T18:01:41.068Z,104056.75
2023-01-23T18:03:42.772Z,104058.38
2023-01-23T18:05:44.306Z,104054.97
2023-01-23T18:07:53.672Z,104049.66
2023-01-23T18:09:56.279Z,104049.56
2023-01-23T18:11:59.047Z,104058.31
2023-01-23T18:14:24.499Z,104056.59
2023-01-23T18:16:31.631Z,104053.97
2023-01-23T18:18:37.060Z,104044.34
2023-01-23T18:20:38.838Z,104055.53
2023-01-23T18:22:40.591Z,104049.50
2023-01-23T18:24:42.332Z,104058.22
2023-01-23T18:26:53.736Z,104069.66
2023-01-23T18:29:31.046Z,104069.59
2023-01-23T18:31:58.242Z,104066.06
2023-01-23T18:34:17.794Z,104073.84
2023-01-23T18:36:36.083Z,104065.09
2023-01-23T18:39:16.328Z,104072.03
2023-01-23T18:41:26.252Z,104061.50
2023-01-23T18:43:40.814Z,104062.25
2023-01-23T18:45:42.590Z,104068.44
2023-01-23T18:47:44.297Z,104069.34
2023-01-23T18:49:46.188Z,104064.94
2023-01-23T18:52:38.841Z,104068.38
2023-01-23T18:54:45.890Z,104071.88
2023-01-23T18:57:26.004Z,104083.16
2023-01-23T18:59:40.596Z,104076.13
2023-01-23T19:01:45.180Z,104077.03
2023-01-23T19:03:49.084Z,104076.22
2023-01-23T19:05:50.802Z,104080.53
2023-01-23T19:07:52.403Z,104084.88
2023-01-23T19:09:54.326Z,104088.31
2023-01-23T19:12:24.882Z,104087.47
2023-01-23T19:15:01.703Z,104089.19
2023-01-23T19:17:17.174Z,104096.06
2023-01-23T19:19:32.838Z,104091.72
2023-01-23T19:21:34.635Z,104097.69
2023-01-23T19:23:58.592Z,104101.13
2023-01-23T19:26:00.337Z,104103.66
2023-01-23T19:28:02.644Z,104097.63
2023-01-23T19:30:04.740Z,104092.38
2023-01-23T19:32:09.862Z,104089.78
2023-01-23T19:34:11.472Z,104088.88
2023-01-23T19:36:13.169Z,104090.59
2023-01-23T19:38:15.069Z,104082.75
2023-01-23T19:40:17.056Z,104086.19
2023-01-23T19:42:18.497Z,104085.38
2023-01-23T19:44:22.736Z,104088.81
2023-01-23T19:46:28.600Z,104095.81
2023-01-23T19:48:30.131Z,104087.09
2023-01-23T19:50:31.591Z,104094.09
2023-01-23T19:52:33.062Z,104092.47
2023-01-23T19:54:34.539Z,104096.78
2023-01-23T19:56:36.990Z,104099.47
2023-01-23T19:58:38.566Z,104089.03
2023-01-23T20:00:40.151Z,104092.53
2023-01-23T20:02:42.104Z,104090.75
2023-01-23T20:04:43.581Z,104088.97
2023-01-23T20:06:45.624Z,104099.41
2023-01-23T20:08:47.270Z,104095.91
2023-01-23T20:10:48.807Z,104096.78
2023-01-23T20:12:52.186Z,104100.38
2023-01-23T20:14:56.555Z,104103.00
2023-01-23T20:16:58.099Z,104097.69
2023-01-23T20:18:59.707Z,104100.31
2023-01-23T20:21:01.237Z,104105.44
2023-01-23T20:23:02.865Z,104102.03
2023-01-23T20:25:06.260Z,104103.72
2023-01-23T20:27:07.700Z,104113.38
2023-01-23T20:29:09.258Z,104108.06
2023-01-23T20:31:13.210Z,104109.84
2023-01-23T20:33:14.744Z,104103.66
2023-01-23T20:35:16.428Z,104107.09
2023-01-23T20:37:18.293Z,104109.78
2023-01-23T20:39:19.838Z,104107.09
2023-01-23T20:41:21.440Z,104105.38
2023-01-23T20:43:22.965Z,104104.47
2023-01-23T20:45:24.922Z,104096.56
2023-01-23T20:47:26.371Z,104107.09
2023-01-23T20:49:27.994Z,104095.66
2023-01-23T20:51:30.395Z,104106.19
2023-01-23T20:53:32.125Z,104103.50
2023-01-23T20:55:33.674Z,104102.69
2023-01-23T20:58:07.318Z,104100.97
2023-01-23T21:00:09.685Z,104096.56
2023-01-23T21:02:23.470Z,104098.28
2023-01-23T21:04:28.293Z,104100.88
2023-01-23T21:06:29.754Z,104100.88
2023-01-23T21:08:31.281Z,104103.50
2023-01-23T21:10:32.773Z,104111.34
2023-01-23T21:12:34.523Z,104099.97
2023-01-23T21:14:35.973Z,104110.44
2023-01-23T21:16:37.516Z,104112.16
2023-01-23T21:18:47.165Z,104113.94
2023-01-23T21:20:48.637Z,104109.53
2023-01-23T21:22:50.119Z,104105.13
2023-01-23T21:24:51.636Z,104099.97
2023-01-23T21:26:53.232Z,104103.50
2023-01-23T21:28:57.032Z,104110.44
2023-01-23T21:30:58.589Z,104114.75
2023-01-23T21:33:00.061Z,104114.69
2023-01-23T21:35:01.571Z,104112.97
2023-01-23T21:37:04.786Z,104109.38
2023-01-23T21:39:08.593Z,104112.81
2023-01-23T21:41:11.179Z,104112.00
2023-01-23T21:43:12.606Z,104113.78
2023-01-23T21:45:14.224Z,104112.00
2023-01-23T21:47:15.664Z,104111.09
2023-01-23T21:49:17.187Z,104112.81
2023-01-23T21:51:20.903Z,104122.44
2023-01-23T21:53:22.344Z,104112.81
2023-01-23T21:55:23.843Z,104115.41
2023-01-23T21:57:25.339Z,104125.88
2023-01-23T21:59:26.851Z,104119.66
2023-01-23T22:01:44.587Z,104126.59
2023-01-23T22:03:46.721Z,104135.34
2023-01-23T22:05:49.201Z,104129.13
2023-01-23T22:07:50.746Z,104137.78
2023-01-23T22:09:52.200Z,104144.81
2023-01-23T22:11:54.767Z,104143.91
2023-01-23T22:13:56.628Z,104145.69
2023-01-23T22:15:58.961Z,104143.09
2023-01-23T22:18:00.449Z,104149.22
2023-01-23T22:20:02.050Z,104147.41
2023-01-23T22:22:03.550Z,104154.34
2023-01-23T22:24:05.809Z,104160.47
2023-01-23T22:26:09.386Z,104156.16
2023-01-23T22:28:10.897Z,104156.06
2023-01-23T22:30:12.806Z,104152.56
2023-01-23T22:32:14.334Z,104160.28
2023-01-23T22:34:15.839Z,104153.34
2023-01-23T22:36:19.668Z,104160.28
2023-01-23T22:38:21.102Z,104159.47
2023-01-23T22:40:22.591Z,104165.50
2023-01-23T22:42:24.078Z,104165.50
2023-01-23T22:44:26.207Z,104166.41
2023-01-23T22:46:28.755Z,104169.13
2023-01-23T22:48:30.484Z,104162.19
2023-01-23T22:50:31.964Z,104156.06
2023-01-23T22:52:34.924Z,104158.69
2023-01-23T22:54:36.428Z,104163.91
2023-01-23T22:56:38.283Z,104156.84
2023-01-23T22:58:39.744Z,104151.63
2023-01-23T23:00:43.541Z,104148.22
2023-01-23T23:02:45.044Z,104146.41
2023-01-23T23:04:49.854Z,104142.81
2023-01-23T23:06:51.342Z,104145.44
2023-01-23T23:08:53.037Z,104149.84
2023-01-23T23:11:06.178Z,104146.31
2023-01-23T23:13:07.663Z,104146.25
2023-01-23T23:15:10.362Z,104143.63
2023-01-23T23:17:11.877Z,104141.84
2023-01-23T23:19:13.374Z,104130.56
2023-01-23T23:21:18.045Z,104143.63
2023-01-23T23:23:21.387Z,104138.25
2023-01-23T23:25:22.992Z,104142.66
2023-01-23T23:27:24.650Z,104140.03
2023-01-23T23:29:26.088Z,104139.13
2023-01-23T23:31:28.149Z,104139.06
2023-01-23T23:33:30.067Z,104141.75
2023-01-23T23:35:31.678Z,104134.72
2023-01-23T23:37:33.120Z,104133.84
2023-01-23T23:39:34.565Z,104132.94
2023-01-23T23:41:36.133Z,104136.44
2023-01-23T23:43:37.940Z,104137.25
2023-01-23T23:45:39.480Z,104138.06
2023-01-23T23:47:40.964Z,104138.97
2023-01-23T23:49:42.409Z,104138.97
2023-01-23T23:51:43.842Z,104139.88
2023-01-23T23:53:45.973Z,104151.13
2023-01-23T23:55:48.281Z,104147.72
2023-01-23T23:57:49.758Z,104147.63
2023-01-23T23:59:51.227Z,104153.75
